Terminal Aerodrome Forecast
Issued by NWS

Home | Current Version | Previous Version | Text Only | Print | Product List | Glossary On
Versions: 1 2 3 4 5 6 7 8 9 10 11 12 13 14 15 16 17 18
000
FTUS43 KFGF 251137
TAFBJI
TAF
KBJI 251137Z 2512/2612 12009KT P6SM BKN005
     FM251900 11012KT P6SM -SHRA OVC090
      TEMPO 2519/2520 TS OVC040CB
     FM260100 12011KT P6SM -SHRA OVC040
     FM260900 14006KT P6SM OVC015=

USA.gov is the U.S. government's official web portal to all federal, state and local government web resources and services.